Chippewa Valley Regional Airport Eau Claire US
ICAO: KEAU
IATA: EAU
Category: Medium
Scheduled Services: Yes

Elevation: 913 ft
TransAlt. 18000 ft.

Airport Communications:
MINNEAPOLIS APP/DEP:125.3
ASOS:119.675
GREEN BAY RDO:122.65
CTAF/UNICOM:123

KEAU Zoom In..

Runways:

(A) RW 04 length 8101 ft width 150 ft
---- / hdg 44

(B) RW 14 length 5000 ft width 100 ft
---- / hdg 138

(C) RW 22 length 8101 ft width 150 ft
ILS 109.50 / hdg 224

(D) RW 32 length 5000 ft width 100 ft
---- / hdg 318

Location; KEAU
Day. 23 / Time. 14.56 Zulu
* Altimeter: 29.92
* Temperature: -07° c. -19.4°f.
* Wind from: 340° Speed 10 kn with Gusts up to 16 kn.
Dewpoint: -09° c.
Visibility: 10 Statute Miles.
Clouds: Overcast 1200 ft.

KEAU 231456Z 34010G16KT 10SM OVC012 M07/M09 A2992 RMK AO2 SLP146 T10671089 51027


Wind From 340°
Speed 10 kn.

YouTube Music Video
 
jpsmedia.com for Web Design  worldairports.se 2018   terms of use